Flugplatz Altenstadt Army Airfield

Bericht für ETHA

vom 07.12. um 16:20 UTC

variable Windrichtung mit 2 kt

Sichtweite 10 km oder mehr

gering bewölkt in 25000 ft

Temperatur -2.0°C

Taupunkt -4.0°C

Luftfeuchtigkeit 86%

Luftdruck 1010 hPa

ETHA 071620Z VRB02KT 9999 FEW250 M02/M04 Q1010 BLACKBLU+

Prognose für ETHA

vom 07.12. um 14:20 UTC

Zwischen 15:00 UTC und 00:00 UTC

Wind 8 kt aus 260°

Sichtweite 10 km oder mehr

keine signifikanten Wettererscheinungen

gering bewölkt in 2000 ft

TAF ETHA 071420Z 0715/0724 26008KT 9999 NSW FEW020
Impressum